sensor_id;sensor_type;location;lat;lon;timestamp;pressure;altitude;pressure_sealevel;temperature;humidity
54816;BME280;40715;55.752;37.884;2022-11-20T00:01:22;99058.16;;;2.01;61.47
54816;BME280;40715;55.752;37.884;2022-11-20T00:03:51;99052.09;;;2.02;61.72
54816;BME280;40715;55.752;37.884;2022-11-20T00:06:20;99067.69;;;2.04;61.52
54816;BME280;40715;55.752;37.884;2022-11-20T00:08:47;99076.34;;;2.01;61.45
54816;BME280;40715;55.752;37.884;2022-11-20T00:11:22;99064.19;;;1.97;61.58
54816;BME280;40715;55.752;37.884;2022-11-20T00:13:52;99058.13;;;1.98;61.20
54816;BME280;40715;55.752;37.884;2022-11-20T00:16:21;99071.09;;;1.95;61.50
54816;BME280;40715;55.752;37.884;2022-11-20T00:18:49;99059.84;;;1.96;61.53
54816;BME280;40715;55.752;37.884;2022-11-20T00:21:22;99064.19;;;1.94;61.74
54816;BME280;40715;55.752;37.884;2022-11-20T00:23:50;99066.78;;;2.00;61.71
54816;BME280;40715;55.752;37.884;2022-11-20T00:26:23;99060.75;;;2.00;61.45
54816;BME280;40715;55.752;37.884;2022-11-20T00:28:52;99064.19;;;2.02;61.56
54816;BME280;40715;55.752;37.884;2022-11-20T00:31:20;99060.75;;;2.03;61.57
54816;BME280;40715;55.752;37.884;2022-11-20T00:33:47;99064.19;;;2.03;61.76
54816;BME280;40715;55.752;37.884;2022-11-20T00:36:19;99059.00;;;2.05;61.60
54816;BME280;40715;55.752;37.884;2022-11-20T00:38:46;99067.69;;;2.07;61.37
54816;BME280;40715;55.752;37.884;2022-11-20T00:41:15;99061.59;;;2.06;61.54
54816;BME280;40715;55.752;37.884;2022-11-20T00:43:42;99064.19;;;2.05;61.39
54816;BME280;40715;55.752;37.884;2022-11-20T00:46:15;99059.91;;;2.12;61.68
54816;BME280;40715;55.752;37.884;2022-11-20T00:48:43;99065.09;;;2.13;61.36
54816;BME280;40715;55.752;37.884;2022-11-20T00:51:15;99065.09;;;2.12;61.50
54816;BME280;40715;55.752;37.884;2022-11-20T00:53:43;99062.50;;;2.13;61.38
54816;BME280;40715;55.752;37.884;2022-11-20T00:56:12;99053.84;;;2.14;61.09
54816;BME280;40715;55.752;37.884;2022-11-20T00:58:41;99061.66;;;2.14;61.11
54816;BME280;40715;55.752;37.884;2022-11-20T01:03:40;99068.56;;;2.11;61.00
54816;BME280;40715;55.752;37.884;2022-11-20T01:06:19;99069.44;;;2.10;61.10
54816;BME280;40715;55.752;37.884;2022-11-20T01:08:47;99055.53;;;2.01;60.58
54816;BME280;40715;55.752;37.884;2022-11-20T01:11:20;99047.75;;;1.97;60.75
54816;BME280;40715;55.752;37.884;2022-11-20T01:13:48;99050.34;;;2.03;60.33
54816;BME280;40715;55.752;37.884;2022-11-20T01:16:21;99054.66;;;1.99;60.22
54816;BME280;40715;55.752;37.884;2022-11-20T01:18:50;99044.25;;;1.96;60.48
54816;BME280;40715;55.752;37.884;2022-11-20T01:21:22;99054.66;;;1.99;60.39
54816;BME280;40715;55.752;37.884;2022-11-20T01:23:50;99050.34;;;1.98;60.49
54816;BME280;40715;55.752;37.884;2022-11-20T01:26:21;99042.50;;;1.95;60.39
54816;BME280;40715;55.752;37.884;2022-11-20T01:28:49;99058.16;;;2.00;60.22
54816;BME280;40715;55.752;37.884;2022-11-20T01:31:24;99050.34;;;1.98;60.49
54816;BME280;40715;55.752;37.884;2022-11-20T01:33:55;99059.00;;;2.00;60.43
54816;BME280;40715;55.752;37.884;2022-11-20T01:36:24;99053.81;;;2.00;60.59
54816;BME280;40715;55.752;37.884;2022-11-20T01:38:52;99071.13;;;2.00;60.45
54816;BME280;40715;55.752;37.884;2022-11-20T01:41:20;99059.84;;;2.01;60.48
54816;BME280;40715;55.752;37.884;2022-11-20T01:44:09;99070.28;;;2.04;60.27
54816;BME280;40715;55.752;37.884;2022-11-20T01:46:39;99066.81;;;2.05;60.32
54816;BME280;40715;55.752;37.884;2022-11-20T01:49:20;99060.75;;;2.06;60.41
54816;BME280;40715;55.752;37.884;2022-11-20T01:51:59;99057.28;;;2.02;60.11
54816;BME280;40715;55.752;37.884;2022-11-20T01:54:35;99045.13;;;1.95;60.27
54816;BME280;40715;55.752;37.884;2022-11-20T01:57:04;99072.88;;;2.05;60.20
54816;BME280;40715;55.752;37.884;2022-11-20T01:59:33;99078.94;;;2.09;60.13
54816;BME280;40715;55.752;37.884;2022-11-20T02:02:00;99083.28;;;2.12;59.91
54816;BME280;40715;55.752;37.884;2022-11-20T02:04:27;99084.16;;;2.14;59.94
54816;BME280;40715;55.752;37.884;2022-11-20T02:07:00;99076.34;;;2.12;60.02
54816;BME280;40715;55.752;37.884;2022-11-20T02:09:27;99090.25;;;2.16;60.12
54816;BME280;40715;55.752;37.884;2022-11-20T02:11:55;99096.28;;;2.16;59.89
54816;BME280;40715;55.752;37.884;2022-11-20T02:14:23;99082.44;;;2.10;59.55
54816;BME280;40715;55.752;37.884;2022-11-20T02:16:50;99100.63;;;2.14;59.65
54816;BME280;40715;55.752;37.884;2022-11-20T02:22:22;99104.97;;;2.17;59.66
54816;BME280;40715;55.752;37.884;2022-11-20T02:24:41;99101.50;;;2.18;59.93
54816;BME280;40715;55.752;37.884;2022-11-20T02:27:12;99113.63;;;2.19;59.76
54816;BME280;40715;55.752;37.884;2022-11-20T02:32:33;99099.78;;;2.23;59.79
54816;BME280;40715;55.752;37.884;2022-11-20T02:37:59;99113.66;;;2.27;59.79
54816;BME280;40715;55.752;37.884;2022-11-20T02:40:27;99093.69;;;2.15;59.64
54816;BME280;40715;55.752;37.884;2022-11-20T02:42:56;99079.84;;;2.13;59.49
54816;BME280;40715;55.752;37.884;2022-11-20T02:45:24;99108.47;;;2.31;59.71
54816;BME280;40715;55.752;37.884;2022-11-20T02:47:51;99118.88;;;2.31;59.57
54816;BME280;40715;55.752;37.884;2022-11-20T02:50:19;99111.94;;;2.33;59.75
54816;BME280;40715;55.752;37.884;2022-11-20T02:52:46;99120.59;;;2.32;59.33
54816;BME280;40715;55.752;37.884;2022-11-20T02:55:13;99092.84;;;2.20;59.20
54816;BME280;40715;55.752;37.884;2022-11-20T02:57:40;99121.47;;;2.31;59.38
54816;BME280;40715;55.752;37.884;2022-11-20T03:00:07;99117.13;;;2.32;59.44
54816;BME280;40715;55.752;37.884;2022-11-20T03:02:34;99125.78;;;2.31;59.26
54816;BME280;40715;55.752;37.884;2022-11-20T03:05:02;99121.47;;;2.28;59.19
54816;BME280;40715;55.752;37.884;2022-11-20T03:07:29;99129.28;;;2.28;59.29
54816;BME280;40715;55.752;37.884;2022-11-20T03:09:56;99123.19;;;2.29;59.66
54816;BME280;40715;55.752;37.884;2022-11-20T03:12:23;99116.28;;;2.30;59.43
54816;BME280;40715;55.752;37.884;2022-11-20T03:14:50;99124.09;;;2.30;59.35
54816;BME280;40715;55.752;37.884;2022-11-20T03:17:18;99124.94;;;2.30;59.38
54816;BME280;40715;55.752;37.884;2022-11-20T03:19:46;99110.19;;;2.26;59.35
54816;BME280;40715;55.752;37.884;2022-11-20T03:22:13;99118.88;;;2.33;59.47
54816;BME280;40715;55.752;37.884;2022-11-20T03:24:40;99127.53;;;2.38;59.73
54816;BME280;40715;55.752;37.884;2022-11-20T03:27:06;99120.63;;;2.35;59.62
54816;BME280;40715;55.752;37.884;2022-11-20T03:29:35;99128.44;;;2.37;59.76
54816;BME280;40715;55.752;37.884;2022-11-20T03:32:02;99127.53;;;2.38;59.64
54816;BME280;40715;55.752;37.884;2022-11-20T03:34:29;99132.78;;;2.41;59.20
54816;BME280;40715;55.752;37.884;2022-11-20T03:36:56;99132.78;;;2.42;59.21
54816;BME280;40715;55.752;37.884;2022-11-20T03:39:22;99129.28;;;2.44;59.07
54816;BME280;40715;55.752;37.884;2022-11-20T03:41:50;99132.78;;;2.44;59.38
54816;BME280;40715;55.752;37.884;2022-11-20T03:44:16;99131.94;;;2.47;58.84
54816;BME280;40715;55.752;37.884;2022-11-20T03:46:43;99141.44;;;2.48;59.32
54816;BME280;40715;55.752;37.884;2022-11-20T03:49:10;99135.38;;;2.49;58.94
54816;BME280;40715;55.752;37.884;2022-11-20T03:51:37;99131.94;;;2.47;59.00
54816;BME280;40715;55.752;37.884;2022-11-20T03:54:08;99142.34;;;2.47;59.55
54816;BME280;40715;55.752;37.884;2022-11-20T03:56:37;99137.97;;;2.47;59.03
54816;BME280;40715;55.752;37.884;2022-11-20T03:59:04;99137.97;;;2.47;58.75
54816;BME280;40715;55.752;37.884;2022-11-20T04:01:34;99140.59;;;2.47;58.54
54816;BME280;40715;55.752;37.884;2022-11-20T04:04:01;99150.13;;;2.48;58.74
54816;BME280;40715;55.752;37.884;2022-11-20T04:06:36;99146.63;;;2.45;59.12
54816;BME280;40715;55.752;37.884;2022-11-20T04:09:05;99150.09;;;2.45;58.80
54816;BME280;40715;55.752;37.884;2022-11-20T04:11:34;99155.34;;;2.47;58.68
54816;BME280;40715;55.752;37.884;2022-11-20T04:14:03;99154.44;;;2.48;58.80
54816;BME280;40715;55.752;37.884;2022-11-20T04:16:33;99150.13;;;2.47;58.76
54816;BME280;40715;55.752;37.884;2022-11-20T04:19:02;99154.44;;;2.46;58.84
54816;BME280;40715;55.752;37.884;2022-11-20T04:21:30;99146.63;;;2.45;58.75
54816;BME280;40715;55.752;37.884;2022-11-20T04:23:57;99153.59;;;2.41;58.28
54816;BME280;40715;55.752;37.884;2022-11-20T04:26:25;99151.78;;;2.32;58.56
54816;BME280;40715;55.752;37.884;2022-11-20T04:28:52;99166.59;;;2.39;58.90
54816;BME280;40715;55.752;37.884;2022-11-20T04:31:25;99164.84;;;2.40;58.41
54816;BME280;40715;55.752;37.884;2022-11-20T04:33:53;99163.97;;;2.41;58.54
54816;BME280;40715;55.752;37.884;2022-11-20T04:36:23;99166.59;;;2.41;58.66
54816;BME280;40715;55.752;37.884;2022-11-20T04:38:57;99167.44;;;2.43;58.58
54816;BME280;40715;55.752;37.884;2022-11-20T04:41:27;99176.09;;;2.42;58.70
54816;BME280;40715;55.752;37.884;2022-11-20T04:43:57;99182.19;;;2.44;58.47
54816;BME280;40715;55.752;37.884;2022-11-20T04:46:27;99191.69;;;2.45;58.26
54816;BME280;40715;55.752;37.884;2022-11-20T04:48:55;99174.34;;;2.30;58.46
54816;BME280;40715;55.752;37.884;2022-11-20T04:51:22;99203.84;;;2.41;58.70
54816;BME280;40715;55.752;37.884;2022-11-20T04:53:49;99199.50;;;2.39;58.75
54816;BME280;40715;55.752;37.884;2022-11-20T04:56:16;99204.69;;;2.44;58.94
54816;BME280;40715;55.752;37.884;2022-11-20T04:58:43;99215.09;;;2.44;59.02
54816;BME280;40715;55.752;37.884;2022-11-20T05:01:11;99211.66;;;2.46;58.56
54816;BME280;40715;55.752;37.884;2022-11-20T05:03:40;99208.19;;;2.46;58.71
54816;BME280;40715;55.752;37.884;2022-11-20T05:06:10;99211.66;;;2.46;58.70
54816;BME280;40715;55.752;37.884;2022-11-20T05:08:37;99163.88;;;2.18;58.67
54816;BME280;40715;55.752;37.884;2022-11-20T05:11:07;99203.84;;;2.46;58.36
54816;BME280;40715;55.752;37.884;2022-11-20T05:13:34;99206.47;;;2.49;58.29
54816;BME280;40715;55.752;37.884;2022-11-20T05:16:07;99221.22;;;2.50;58.20
54816;BME280;40715;55.752;37.884;2022-11-20T05:18:35;99210.81;;;2.47;58.23
54816;BME280;40715;55.752;37.884;2022-11-20T05:21:03;99217.75;;;2.48;58.86
54816;BME280;40715;55.752;37.884;2022-11-20T05:23:31;99229.00;;;2.50;57.92
54816;BME280;40715;55.752;37.884;2022-11-20T05:25:59;99224.66;;;2.51;58.37
54816;BME280;40715;55.752;37.884;2022-11-20T05:28:28;99220.34;;;2.51;58.36
54816;BME280;40715;55.752;37.884;2022-11-20T05:30:55;99228.16;;;2.51;58.59
54816;BME280;40715;55.752;37.884;2022-11-20T05:33:22;99243.75;;;2.53;58.65
54816;BME280;40715;55.752;37.884;2022-11-20T05:35:49;99252.41;;;2.53;58.66
54816;BME280;40715;55.752;37.884;2022-11-20T05:38:16;99246.38;;;2.56;58.22
54816;BME280;40715;55.752;37.884;2022-11-20T05:40:43;99243.78;;;2.59;58.31
54816;BME280;40715;55.752;37.884;2022-11-20T05:43:10;99225.53;;;2.48;58.22
54816;BME280;40715;55.752;37.884;2022-11-20T05:45:37;99238.56;;;2.57;57.80
54816;BME280;40715;55.752;37.884;2022-11-20T05:48:04;99240.31;;;2.60;58.18
54816;BME280;40715;55.752;37.884;2022-11-20T05:50:31;99236.88;;;2.59;58.15
54816;BME280;40715;55.752;37.884;2022-11-20T05:52:59;99248.13;;;2.62;58.04
54816;BME280;40715;55.752;37.884;2022-11-20T05:55:27;99240.31;;;2.52;58.50
54816;BME280;40715;55.752;37.884;2022-11-20T05:57:54;99248.09;;;2.54;58.70
54816;BME280;40715;55.752;37.884;2022-11-20T06:00:21;99260.22;;;2.56;58.40
54816;BME280;40715;55.752;37.884;2022-11-20T06:02:49;99261.97;;;2.59;58.64
54816;BME280;40715;55.752;37.884;2022-11-20T06:05:16;99277.59;;;2.62;58.15
54816;BME280;40715;55.752;37.884;2022-11-20T06:07:43;99282.84;;;2.65;58.13
54816;BME280;40715;55.752;37.884;2022-11-20T06:10:10;99275.03;;;2.64;58.04
54816;BME280;40715;55.752;37.884;2022-11-20T06:12:37;99270.69;;;2.61;58.11
54816;BME280;40715;55.752;37.884;2022-11-20T06:15:08;99261.13;;;2.58;58.02
54816;BME280;40715;55.752;37.884;2022-11-20T06:17:35;99288.91;;;2.69;57.86
54816;BME280;40715;55.752;37.884;2022-11-20T06:20:02;99287.19;;;2.71;57.81
54816;BME280;40715;55.752;37.884;2022-11-20T06:22:29;99286.31;;;2.73;58.19
54816;BME280;40715;55.752;37.884;2022-11-20T06:24:56;99275.88;;;2.64;57.93
54816;BME280;40715;55.752;37.884;2022-11-20T06:27:23;99284.56;;;2.69;58.02
54816;BME280;40715;55.752;37.884;2022-11-20T06:29:50;99308.88;;;2.79;58.20
54816;BME280;40715;55.752;37.884;2022-11-20T06:32:17;99301.06;;;2.76;57.93
54816;BME280;40715;55.752;37.884;2022-11-20T06:34:44;99313.25;;;2.82;58.20
54816;BME280;40715;55.752;37.884;2022-11-20T06:37:11;99309.78;;;2.86;58.29
54816;BME280;40715;55.752;37.884;2022-11-20T06:39:37;99325.41;;;2.89;58.25
54816;BME280;40715;55.752;37.884;2022-11-20T06:42:04;99320.22;;;2.92;58.04
54816;BME280;40715;55.752;37.884;2022-11-20T06:44:31;99322.81;;;2.93;58.28
54816;BME280;40715;55.752;37.884;2022-11-20T06:46:58;99323.72;;;2.96;58.29
54816;BME280;40715;55.752;37.884;2022-11-20T06:49:25;99303.72;;;2.87;58.22
54816;BME280;40715;55.752;37.884;2022-11-20T06:51:52;99312.41;;;2.93;58.04
54816;BME280;40715;55.752;37.884;2022-11-20T06:54:19;99321.13;;;3.02;58.26
54816;BME280;40715;55.752;37.884;2022-11-20T06:56:47;99308.09;;;2.96;58.34
54816;BME280;40715;55.752;37.884;2022-11-20T06:59:15;99306.41;;;3.02;58.08
54816;BME280;40715;55.752;37.884;2022-11-20T07:01:45;99316.81;;;3.04;58.34
54816;BME280;40715;55.752;37.884;2022-11-20T07:04:12;99323.72;;;3.06;58.28
54816;BME280;40715;55.752;37.884;2022-11-20T07:06:39;99315.06;;;3.07;58.07
54816;BME280;40715;55.752;37.884;2022-11-20T07:09:06;99304.66;;;3.01;58.13
54816;BME280;40715;55.752;37.884;2022-11-20T07:11:38;99319.41;;;3.15;58.30
54816;BME280;40715;55.752;37.884;2022-11-20T07:14:04;99307.25;;;3.07;58.13
54816;BME280;40715;55.752;37.884;2022-11-20T07:16:32;99311.63;;;3.18;57.98
54816;BME280;40715;55.752;37.884;2022-11-20T07:18:58;99309.00;;;3.18;58.15
54816;BME280;40715;55.752;37.884;2022-11-20T07:21:26;99315.97;;;3.20;58.27
54816;BME280;40715;55.752;37.884;2022-11-20T07:23:54;99312.50;;;3.21;57.97
54816;BME280;40715;55.752;37.884;2022-11-20T07:26:21;99326.38;;;3.20;57.99
54816;BME280;40715;55.752;37.884;2022-11-20T07:28:48;99330.72;;;3.24;57.97
54816;BME280;40715;55.752;37.884;2022-11-20T07:31:15;99326.41;;;3.26;58.07
54816;BME280;40715;55.752;37.884;2022-11-20T07:33:45;99326.38;;;3.25;57.97
54816;BME280;40715;55.752;37.884;2022-11-20T07:36:11;99330.75;;;3.29;57.65
54816;BME280;40715;55.752;37.884;2022-11-20T07:38:38;99312.50;;;3.24;57.73
54816;BME280;40715;55.752;37.884;2022-11-20T07:41:05;99325.56;;;3.32;57.64
54816;BME280;40715;55.752;37.884;2022-11-20T07:43:32;99320.31;;;3.31;57.84
54816;BME280;40715;55.752;37.884;2022-11-20T07:46:05;99326.41;;;3.34;57.62
54816;BME280;40715;55.752;37.884;2022-11-20T07:48:32;99335.97;;;3.35;57.68
54816;BME280;40715;55.752;37.884;2022-11-20T07:50:59;99327.31;;;3.38;57.66
54816;BME280;40715;55.752;37.884;2022-11-20T07:53:26;99315.16;;;3.34;57.56
54816;BME280;40715;55.752;37.884;2022-11-20T07:55:53;99331.63;;;3.42;57.70
54816;BME280;40715;55.752;37.884;2022-11-20T07:58:21;99338.59;;;3.43;57.35
54816;BME280;40715;55.752;37.884;2022-11-20T08:00:48;99333.38;;;3.46;57.59
54816;BME280;40715;55.752;37.884;2022-11-20T08:03:15;99314.25;;;3.36;57.39
54816;BME280;40715;55.752;37.884;2022-11-20T08:05:47;99322.97;;;3.40;57.21
54816;BME280;40715;55.752;37.884;2022-11-20T08:08:14;99342.94;;;3.42;57.25
54816;BME280;40715;55.752;37.884;2022-11-20T08:10:40;99349.00;;;3.48;57.34
54816;BME280;40715;55.752;37.884;2022-11-20T08:13:08;99328.16;;;3.41;57.24
54816;BME280;40715;55.752;37.884;2022-11-20T08:15:53;99350.75;;;3.50;57.15
54816;BME280;40715;55.752;37.884;2022-11-20T08:18:20;99359.47;;;3.52;57.43
54816;BME280;40715;55.752;37.884;2022-11-20T08:21:04;99355.97;;;3.53;57.32
54816;BME280;40715;55.752;37.884;2022-11-20T08:23:31;99355.09;;;3.54;57.58
54816;BME280;40715;55.752;37.884;2022-11-20T08:25:58;99358.59;;;3.56;57.36
54816;BME280;40715;55.752;37.884;2022-11-20T08:28:25;99362.94;;;3.59;57.02
54816;BME280;40715;55.752;37.884;2022-11-20T08:30:58;99355.09;;;3.60;57.31
54816;BME280;40715;55.752;37.884;2022-11-20T08:33:25;99335.13;;;3.55;57.14
54816;BME280;40715;55.752;37.884;2022-11-20T08:35:52;99355.13;;;3.65;57.15
54816;BME280;40715;55.752;37.884;2022-11-20T08:38:19;99358.59;;;3.66;56.87
54816;BME280;40715;55.752;37.884;2022-11-20T08:40:46;99345.56;;;3.58;57.01
54816;BME280;40715;55.752;37.884;2022-11-20T08:43:33;99353.38;;;3.69;57.12
54816;BME280;40715;55.752;37.884;2022-11-20T08:46:00;99356.00;;;3.69;56.79
54816;BME280;40715;55.752;37.884;2022-11-20T08:48:27;99362.09;;;3.71;56.74
54816;BME280;40715;55.752;37.884;2022-11-20T08:50:58;99352.53;;;3.65;56.75
54816;BME280;40715;55.752;37.884;2022-11-20T08:53:26;99336.00;;;3.54;56.76
54816;BME280;40715;55.752;37.884;2022-11-20T08:55:53;99371.63;;;3.72;56.77
54816;BME280;40715;55.752;37.884;2022-11-20T08:58:20;99378.59;;;3.73;56.60
54816;BME280;40715;55.752;37.884;2022-11-20T09:00:47;99380.34;;;3.72;56.52
54816;BME280;40715;55.752;37.884;2022-11-20T09:03:15;99382.94;;;3.72;56.76
54816;BME280;40715;55.752;37.884;2022-11-20T09:05:41;99394.22;;;3.73;56.67
54816;BME280;40715;55.752;37.884;2022-11-20T09:08:09;99409.00;;;3.75;56.83
54816;BME280;40715;55.752;37.884;2022-11-20T09:10:36;99413.34;;;3.76;57.04
54816;BME280;40715;55.752;37.884;2022-11-20T09:13:06;99418.56;;;3.76;57.03
54816;BME280;40715;55.752;37.884;2022-11-20T09:15:33;99414.22;;;3.77;56.79
54816;BME280;40715;55.752;37.884;2022-11-20T09:18:02;99420.28;;;3.79;56.97
54816;BME280;40715;55.752;37.884;2022-11-20T09:20:31;99410.75;;;3.76;57.18
54816;BME280;40715;55.752;37.884;2022-11-20T09:22:58;99393.34;;;3.66;57.20
54816;BME280;40715;55.752;37.884;2022-11-20T09:25:25;99432.47;;;3.83;56.92
54816;BME280;40715;55.752;37.884;2022-11-20T09:27:56;99422.03;;;3.80;56.71
54816;BME280;40715;55.752;37.884;2022-11-20T09:30:23;99409.00;;;3.75;56.99
54816;BME280;40715;55.752;37.884;2022-11-20T09:32:50;99417.69;;;3.74;56.93
54816;BME280;40715;55.752;37.884;2022-11-20T09:35:17;99452.44;;;3.86;56.61
54816;BME280;40715;55.752;37.884;2022-11-20T09:37:45;99406.34;;;3.60;56.71
54816;BME280;40715;55.752;37.884;2022-11-20T09:40:28;99451.59;;;3.88;56.39
54816;BME280;40715;55.752;37.884;2022-11-20T09:56:28;99458.53;;;3.86;56.68
54816;BME280;40715;55.752;37.884;2022-11-20T09:58:59;99455.06;;;3.84;56.47
54816;BME280;40715;55.752;37.884;2022-11-20T10:01:32;99452.44;;;3.90;56.67
54816;BME280;40715;55.752;37.884;2022-11-20T10:07:02;99453.34;;;3.94;56.41
54816;BME280;40715;55.752;37.884;2022-11-20T10:09:55;99462.03;;;3.94;56.49
54816;BME280;40715;55.752;37.884;2022-11-20T10:12:45;99457.69;;;3.95;56.58
54816;BME280;40715;55.752;37.884;2022-11-20T10:15:45;99454.19;;;3.97;56.46
54816;BME280;40715;55.752;37.884;2022-11-20T10:21:16;99459.41;;;3.97;56.21
54816;BME280;40715;55.752;37.884;2022-11-20T10:26:51;99475.94;;;3.98;56.38
54816;BME280;40715;55.752;37.884;2022-11-20T10:29:33;99470.72;;;3.95;56.35
54816;BME280;40715;55.752;37.884;2022-11-20T10:32:09;99467.22;;;3.90;56.37
54816;BME280;40715;55.752;37.884;2022-11-20T10:34:55;99474.19;;;3.95;56.32
54816;BME280;40715;55.752;37.884;2022-11-20T10:37:27;99469.84;;;3.91;55.96
54816;BME280;40715;55.752;37.884;2022-11-20T10:40:04;99479.41;;;3.95;56.08
54816;BME280;40715;55.752;37.884;2022-11-20T10:48:20;99481.16;;;3.96;55.72
54816;BME280;40715;55.752;37.884;2022-11-20T10:51:07;99477.66;;;3.94;55.58
54816;BME280;40715;55.752;37.884;2022-11-20T10:53:40;99486.38;;;3.93;55.69
54816;BME280;40715;55.752;37.884;2022-11-20T11:01:46;99492.44;;;3.89;55.52
54816;BME280;40715;55.752;37.884;2022-11-20T11:04:54;99499.38;;;3.92;55.71
54816;BME280;40715;55.752;37.884;2022-11-20T11:07:24;99490.69;;;3.88;55.40
54816;BME280;40715;55.752;37.884;2022-11-20T11:09:56;99476.75;;;3.78;55.52
54816;BME280;40715;55.752;37.884;2022-11-20T11:12:28;99494.16;;;3.87;55.44
54816;BME280;40715;55.752;37.884;2022-11-20T11:14:59;99484.56;;;3.77;55.50
54816;BME280;40715;55.752;37.884;2022-11-20T11:17:28;99503.72;;;3.87;55.50
54816;BME280;40715;55.752;37.884;2022-11-20T11:20:21;99508.06;;;3.88;55.68
54816;BME280;40715;55.752;37.884;2022-11-20T11:22:57;99500.22;;;3.82;55.36
54816;BME280;40715;55.752;37.884;2022-11-20T11:25:36;99513.28;;;3.88;55.63
54816;BME280;40715;55.752;37.884;2022-11-20T11:28:21;99512.41;;;3.87;55.35
54816;BME280;40715;55.752;37.884;2022-11-20T11:30:50;99401.88;;;3.23;55.30
54816;BME280;40715;55.752;37.884;2022-11-20T11:33:31;99512.41;;;3.87;55.70
54816;BME280;40715;55.752;37.884;2022-11-20T11:36:14;99475.84;;;3.67;55.19
54816;BME280;40715;55.752;37.884;2022-11-20T11:38:44;99501.13;;;3.85;55.28
54816;BME280;40715;55.752;37.884;2022-11-20T11:41:23;99492.41;;;3.78;55.74
54816;BME280;40715;55.752;37.884;2022-11-20T11:43:56;99499.38;;;3.84;55.65
54816;BME280;40715;55.752;37.884;2022-11-20T11:46:50;99507.19;;;3.83;55.48
54816;BME280;40715;55.752;37.884;2022-11-20T11:49:19;99500.22;;;3.83;55.73
54816;BME280;40715;55.752;37.884;2022-11-20T11:52:18;99513.25;;;3.85;55.52
54816;BME280;40715;55.752;37.884;2022-11-20T11:54:53;99508.94;;;3.84;55.79
54816;BME280;40715;55.752;37.884;2022-11-20T12:00:12;99516.75;;;3.82;55.18
54816;BME280;40715;55.752;37.884;2022-11-20T12:10:48;99528.03;;;3.84;55.87
54816;BME280;40715;55.752;37.884;2022-11-20T12:15:54;99507.13;;;3.69;55.71
54816;BME280;40715;55.752;37.884;2022-11-20T12:18:22;99526.28;;;3.82;55.74
54816;BME280;40715;55.752;37.884;2022-11-20T12:35:08;99507.16;;;3.75;56.50
54816;BME280;40715;55.752;37.884;2022-11-20T12:43:21;99516.69;;;3.76;56.42
54816;BME280;40715;55.752;37.884;2022-11-20T12:46:28;99504.53;;;3.72;56.50
54816;BME280;40715;55.752;37.884;2022-11-20T12:52:05;99521.91;;;3.76;56.75
54816;BME280;40715;55.752;37.884;2022-11-20T13:00:12;99526.25;;;3.74;56.96
54816;BME280;40715;55.752;37.884;2022-11-20T13:08:02;99534.94;;;3.70;56.82
54816;BME280;40715;55.752;37.884;2022-11-20T13:10:43;99551.47;;;3.75;57.03
54816;BME280;40715;55.752;37.884;2022-11-20T13:18:22;99549.72;;;3.74;56.93
54816;BME280;40715;55.752;37.884;2022-11-20T13:20:49;99554.94;;;3.78;57.39
54816;BME280;40715;55.752;37.884;2022-11-20T13:23:27;99553.22;;;3.80;57.47
54816;BME280;40715;55.752;37.884;2022-11-20T13:26:06;99533.19;;;3.72;57.18
54816;BME280;40715;55.752;37.884;2022-11-20T13:28:40;99530.56;;;3.67;57.15
54816;BME280;40715;55.752;37.884;2022-11-20T13:33:59;99542.75;;;3.70;57.52
54816;BME280;40715;55.752;37.884;2022-11-20T13:36:28;99548.88;;;3.75;57.78
54816;BME280;40715;55.752;37.884;2022-11-20T13:38:56;99564.50;;;3.81;57.64
54816;BME280;40715;55.752;37.884;2022-11-20T13:44:04;99564.53;;;3.83;57.94
54816;BME280;40715;55.752;37.884;2022-11-20T13:46:39;99563.66;;;3.82;57.87
54816;BME280;40715;55.752;37.884;2022-11-20T13:49:09;99571.47;;;3.85;57.65
54816;BME280;40715;55.752;37.884;2022-11-20T13:51:46;99552.34;;;3.77;57.53
54816;BME280;40715;55.752;37.884;2022-11-20T14:00:19;99570.59;;;3.85;57.73
54816;BME280;40715;55.752;37.884;2022-11-20T14:03:08;99579.31;;;3.84;57.85
54816;BME280;40715;55.752;37.884;2022-11-20T14:05:45;99571.41;;;3.71;57.61
54816;BME280;40715;55.752;37.884;2022-11-20T14:08:24;99581.91;;;3.80;57.92
54816;BME280;40715;55.752;37.884;2022-11-20T14:11:01;99584.53;;;3.88;58.27
54816;BME280;40715;55.752;37.884;2022-11-20T14:13:29;99568.78;;;3.67;57.70
54816;BME280;40715;55.752;37.884;2022-11-20T14:15:58;99585.34;;;3.75;57.88
54816;BME280;40715;55.752;37.884;2022-11-20T14:18:33;99589.66;;;3.76;58.03
54816;BME280;40715;55.752;37.884;2022-11-20T14:21:01;99566.19;;;3.62;57.81
54816;BME280;40715;55.752;37.884;2022-11-20T14:23:29;99593.13;;;3.73;57.88
54816;BME280;40715;55.752;37.884;2022-11-20T14:25:56;99597.50;;;3.76;58.07
54816;BME280;40715;55.752;37.884;2022-11-20T14:28:32;99601.00;;;3.78;58.34
54816;BME280;40715;55.752;37.884;2022-11-20T14:31:00;99604.47;;;3.78;57.97
54816;BME280;40715;55.752;37.884;2022-11-20T14:33:27;99605.34;;;3.80;57.81
54816;BME280;40715;55.752;37.884;2022-11-20T14:35:56;99595.78;;;3.76;58.26
54816;BME280;40715;55.752;37.884;2022-11-20T14:38:27;99593.19;;;3.79;58.05
54816;BME280;40715;55.752;37.884;2022-11-20T14:41:04;99596.63;;;3.77;58.21
54816;BME280;40715;55.752;37.884;2022-11-20T14:43:32;99596.66;;;3.80;58.38
54816;BME280;40715;55.752;37.884;2022-11-20T14:46:02;99610.59;;;3.87;58.31
54816;BME280;40715;55.752;37.884;2022-11-20T14:48:33;99621.88;;;3.87;58.07
54816;BME280;40715;55.752;37.884;2022-11-20T14:51:02;99627.09;;;3.87;58.04
54816;BME280;40715;55.752;37.884;2022-11-20T14:53:29;99627.97;;;3.89;58.11
54816;BME280;40715;55.752;37.884;2022-11-20T14:56:02;99629.69;;;3.89;58.25
54816;BME280;40715;55.752;37.884;2022-11-20T14:58:31;99626.22;;;3.87;58.58
54816;BME280;40715;55.752;37.884;2022-11-20T15:01:05;99626.25;;;3.91;58.13
54816;BME280;40715;55.752;37.884;2022-11-20T15:03:34;99618.41;;;3.91;58.48
54816;BME280;40715;55.752;37.884;2022-11-20T15:06:03;99623.63;;;3.93;58.43